Time;durP1;ratioP1;P1;durP2;ratioP2;P2;SDS_P1;SDS_P2;PMS_P1;PMS_P2;Temp;Humidity;BMP_temperature;BMP_pressure;BME280_temperature;BME280_humidity;BME280_pressure;Samples;Min_cycle;Max_cycle;Signal;HPM_P1;HPM_P2
2022/04/06 00:00:46;;;;;;;;;;;;;;;8.35;100.00;97160.98;1613384;88;22099;-82
2022/04/06 00:03:13;;;;;;;;;;;;;;;8.33;100.00;97155.09;1607592;88;26078;-82
2022/04/06 00:05:39;;;;;;;;;;;;;;;8.34;100.00;97153.67;1619281;88;24465;-83
2022/04/06 00:08:05;;;;;;;;;;;;;;;8.35;100.00;97155.77;1613810;88;20235;-81
2022/04/06 00:10:31;;;;;;;;;;;;;;;8.35;100.00;97148.78;1605893;88;25038;-82
2022/04/06 00:12:58;;;;;;;;;;;;;;;8.36;100.00;97146.53;1608554;88;22700;-82
2022/04/06 00:15:24;;;;;;;;;;;;;;;8.37;100.00;97146.06;1608668;88;26039;-82
2022/04/06 00:17:50;;;;;;;;;;;;;;;8.39;100.00;97154.59;1613605;88;24399;-82
2022/04/06 00:20:16;;;;;;;;;;;;;;;8.39;100.00;97145.47;1609423;88;20217;-82
2022/04/06 00:22:43;;;;;;;;;;;;;;;8.38;100.00;97151.16;1606837;88;24973;-82
2022/04/06 00:25:09;;;;;;;;;;;;;;;8.40;100.00;97147.09;1617428;88;21992;-82
2022/04/06 00:27:35;;;;;;;;;;;;;;;8.42;100.00;97157.41;1609502;88;26109;-83
2022/04/06 00:30:01;;;;;;;;;;;;;;;8.43;100.00;97149.47;1614517;88;25193;-82
2022/04/06 00:32:27;;;;;;;;;;;;;;;8.43;100.00;97152.08;1609969;88;20336;-82
2022/04/06 00:37:38;;;;;;;;;;;;;;;8.40;100.00;97162.27;1612497;88;22031;-82
2022/04/06 00:40:05;;;;;;;;;;;;;;;8.42;100.00;97167.84;1612881;88;26003;-82
2022/04/06 00:42:31;;;;;;;;;;;;;;;8.40;100.00;97170.56;1613172;88;24502;-82
2022/04/06 00:44:57;;;;;;;;;;;;;;;8.40;100.00;97174.00;1612482;88;20214;-82
2022/04/06 00:47:24;;;;;;;;;;;;;;;8.39;100.00;97163.24;1598747;88;20314;-82
2022/04/06 00:49:50;;;;;;;;;;;;;;;8.40;100.00;97159.66;1618701;88;20380;-82
2022/04/06 00:52:16;;;;;;;;;;;;;;;8.40;100.00;97163.56;1615372;88;26126;-83
2022/04/06 00:54:43;;;;;;;;;;;;;;;8.43;100.00;97161.67;1605654;88;24508;-82
2022/04/06 00:57:09;;;;;;;;;;;;;;;8.44;100.00;97158.13;1619096;87;20258;-82
2022/04/06 00:59:37;;;;;;;;;;;;;;;8.43;100.00;97152.08;1630355;87;25058;-82
2022/04/06 01:02:03;;;;;;;;;;;;;;;8.46;100.00;97164.02;1629969;87;21962;-82
2022/04/06 01:04:29;;;;;;;;;;;;;;;8.47;100.00;97169.12;1623329;87;26002;-81
2022/04/06 01:06:55;;;;;;;;;;;;;;;8.48;100.00;97159.52;1625796;87;24499;-82
2022/04/06 01:09:21;;;;;;;;;;;;;;;8.48;100.00;97153.00;1628140;87;20317;-82
2022/04/06 01:11:48;;;;;;;;;;;;;;;8.49;100.00;97165.09;1637695;86;25002;-82
2022/04/06 01:14:14;;;;;;;;;;;;;;;8.50;100.00;97160.23;1613811;87;22097;-82
2022/04/06 01:16:42;;;;;;;;;;;;;;;8.51;100.00;97165.80;1631980;87;25955;-82
2022/04/06 01:19:08;;;;;;;;;;;;;;;8.52;100.00;97167.44;1626483;87;24561;-81
2022/04/06 01:21:34;;;;;;;;;;;;;;;8.53;100.00;97167.79;1633771;87;20276;-82
2022/04/06 01:24:00;;;;;;;;;;;;;;;8.52;100.00;97163.05;1629542;87;20252;-81
2022/04/06 01:26:26;;;;;;;;;;;;;;;8.54;100.00;97144.68;1610939;87;20233;-81
2022/04/06 01:28:52;;;;;;;;;;;;;;;8.53;100.00;97164.71;1634746;87;26142;-81
2022/04/06 01:31:18;;;;;;;;;;;;;;;8.54;100.00;97173.36;1634881;86;20263;-81
2022/04/06 01:33:44;;;;;;;;;;;;;;;8.53;100.00;97167.31;1634886;87;20394;-81
2022/04/06 01:36:10;;;;;;;;;;;;;;;8.53;100.00;97169.92;1631804;87;25723;-82
2022/04/06 01:38:36;;;;;;;;;;;;;;;8.52;100.00;97169.56;1637656;87;21958;-82
2022/04/06 01:41:02;;;;;;;;;;;;;;;8.52;100.00;97167.44;1637103;87;26026;-82
2022/04/06 01:43:28;;;;;;;;;;;;;;;8.54;100.00;97166.84;1617638;87;24530;-82
2022/04/06 01:45:55;;;;;;;;;;;;;;;8.54;100.00;97165.06;1638157;87;20489;-82
2022/04/06 01:48:21;;;;;;;;;;;;;;;8.55;100.00;97167.20;1632081;86;24829;-82
2022/04/06 01:53:32;;;;;;;;;;;;;;;8.57;100.00;97149.16;1629702;86;26894;-82
2022/04/06 01:55:58;;;;;;;;;;;;;;;8.58;100.00;97156.50;1635085;87;24406;-82
2022/04/06 01:58:24;;;;;;;;;;;;;;;8.59;100.00;97155.09;1626426;88;20310;-83
2022/04/06 02:00:50;;;;;;;;;;;;;;;8.59;100.00;97152.48;1626400;88;20282;-82
2022/04/06 02:03:16;;;;;;;;;;;;;;;8.61;100.00;97158.41;1626533;88;22039;-83
2022/04/06 02:05:42;;;;;;;;;;;;;;;8.62;100.00;97170.97;1626480;88;26226;-83
2022/04/06 02:08:09;;;;;;;;;;;;;;;8.61;100.00;97172.75;1626075;87;24457;-83
2022/04/06 02:10:34;;;;;;;;;;;;;;;8.62;100.00;97168.36;1626557;87;20262;-81
2022/04/06 02:13:02;;;;;;;;;;;;;;;8.64;100.00;97173.78;1626505;88;20186;-82
2022/04/06 02:15:28;;;;;;;;;;;;;;;8.64;100.00;97155.53;1626461;88;22035;-83
2022/04/06 02:17:54;;;;;;;;;;;;;;;8.65;100.00;97179.36;1626344;88;26639;-83
2022/04/06 02:20:20;;;;;;;;;;;;;;;8.67;100.00;97172.72;1626487;88;24621;-83
2022/04/06 02:22:46;;;;;;;;;;;;;;;8.66;100.00;97171.89;1626431;88;20247;-83
2022/04/06 02:25:13;;;;;;;;;;;;;;;8.67;100.00;97169.61;1626438;88;25600;-83
2022/04/06 02:27:44;;;;;;;;;;;;;;;8.67;100.00;97163.09;1626527;88;21973;-83
2022/04/06 02:30:18;;;;;;;;;;;;;;;8.69;100.00;97166.41;1626475;88;26101;-83
2022/04/06 02:32:44;;;;;;;;;;;;;;;8.68;100.00;97171.27;1626014;87;24526;-83
2022/04/06 02:35:12;;;;;;;;;;;;;;;8.71;100.00;97176.72;1626433;88;20510;-83
2022/04/06 02:37:41;;;;;;;;;;;;;;;8.72;100.00;97174.00;1626284;87;24900;-83
2022/04/06 02:40:06;;;;;;;;;;;;;;;8.73;100.00;97169.11;1626460;87;22013;-82
2022/04/06 02:42:32;;;;;;;;;;;;;;;8.73;100.00;97161.28;1626587;88;25952;-83
2022/04/06 02:44:58;;;;;;;;;;;;;;;8.75;100.00;97156.78;1626238;88;20288;-82
2022/04/06 02:47:25;;;;;;;;;;;;;;;8.76;100.00;97157.13;1626152;88;20219;-82
2022/04/06 02:49:51;;;;;;;;;;;;;;;8.77;100.00;97158.80;1626476;88;25041;-82
2022/04/06 02:52:17;;;;;;;;;;;;;;;8.77;100.00;97150.14;1626494;88;21890;-82
2022/04/06 02:54:43;;;;;;;;;;;;;;;8.75;100.00;97142.43;1626543;88;21121;-83
2022/04/06 02:57:09;;;;;;;;;;;;;;;8.74;100.00;97142.08;1630902;87;20268;-83
2022/04/06 02:59:39;;;;;;;;;;;;;;;8.75;100.00;97142.43;1639824;87;20248;-83
2022/04/06 03:02:04;;;;;;;;;;;;;;;8.76;100.00;97156.30;1639004;87;25037;-82
2022/04/06 03:04:30;;;;;;;;;;;;;;;8.74;100.00;97156.42;1637857;86;21980;-82
2022/04/06 03:06:55;;;;;;;;;;;;;;;8.72;100.00;97154.44;1637928;87;21764;-83
2022/04/06 03:09:22;;;;;;;;;;;;;;;8.73;100.00;97163.06;1640147;87;24483;-82
2022/04/06 03:11:48;;;;;;;;;;;;;;;8.74;100.00;97166.86;1641008;87;20465;-82
2022/04/06 03:14:14;;;;;;;;;;;;;;;8.74;100.00;97172.07;1641160;86;25097;-82
2022/04/06 03:16:40;;;;;;;;;;;;;;;8.77;100.00;97171.84;1638800;87;20288;-82
2022/04/06 03:19:06;;;;;;;;;;;;;;;8.77;100.00;97171.84;1638901;86;26860;-82
2022/04/06 03:21:32;;;;;;;;;;;;;;;8.79;100.00;97171.69;1641517;87;24423;-82
2022/04/06 03:23:58;;;;;;;;;;;;;;;8.80;100.00;97180.70;1640366;87;20171;-82
2022/04/06 03:26:24;;;;;;;;;;;;;;;8.79;100.00;97177.73;1639679;86;25048;-82
2022/04/06 03:28:50;;;;;;;;;;;;;;;8.80;100.00;97175.48;1639756;87;21943;-83
2022/04/06 03:31:16;;;;;;;;;;;;;;;8.80;100.00;97185.91;1640451;87;25993;-82
2022/04/06 03:33:42;;;;;;;;;;;;;;;8.81;100.00;97186.27;1639743;87;24431;-82
2022/04/06 03:36:09;;;;;;;;;;;;;;;8.83;100.00;97190.54;1640782;87;20592;-83
2022/04/06 03:38:36;;;;;;;;;;;;;;;8.83;100.00;97198.37;1635859;87;25646;-83
2022/04/06 03:41:02;;;;;;;;;;;;;;;8.83;100.00;97197.89;1640378;87;22075;-83
2022/04/06 03:43:29;;;;;;;;;;;;;;;8.81;100.00;97194.57;1637693;87;25966;-83
2022/04/06 03:45:55;;;;;;;;;;;;;;;8.84;100.00;97190.89;1641013;87;24440;-83
2022/04/06 03:48:22;;;;;;;;;;;;;;;8.86;100.00;97192.41;1638402;87;20178;-83
2022/04/06 03:50:50;;;;;;;;;;;;;;;8.85;100.00;97191.22;1637613;87;24982;-82
2022/04/06 03:53:18;;;;;;;;;;;;;;;8.87;100.00;97198.45;1610224;87;20489;-82
2022/04/06 03:55:44;;;;;;;;;;;;;;;8.88;100.00;97194.90;1638879;87;26007;-83
2022/04/06 03:58:10;;;;;;;;;;;;;;;8.88;100.00;97189.68;1635740;86;24409;-83
2022/04/06 04:00:36;;;;;;;;;;;;;;;8.89;100.00;97190.03;1632241;87;20298;-83
2022/04/06 04:03:05;;;;;;;;;;;;;;;8.88;100.00;97185.77;1631708;87;25086;-82
2022/04/06 04:05:30;;;;;;;;;;;;;;;8.88;100.00;97174.03;1632012;87;22025;-83
2022/04/06 04:07:56;;;;;;;;;;;;;;;8.88;100.00;97183.16;1631891;87;25978;-83
2022/04/06 04:10:22;;;;;;;;;;;;;;;8.89;100.00;97179.60;1633689;87;20315;-83
2022/04/06 04:12:48;;;;;;;;;;;;;;;8.90;100.00;97172.09;1630647;87;20263;-83
2022/04/06 04:15:14;;;;;;;;;;;;;;;8.90;100.00;97171.63;1632325;87;24939;-83
2022/04/06 04:17:41;;;;;;;;;;;;;;;8.88;100.00;97156.59;1633191;87;22670;-83
2022/04/06 04:20:07;;;;;;;;;;;;;;;8.89;100.00;97161.34;1629254;87;25992;-83
2022/04/06 04:22:33;;;;;;;;;;;;;;;8.89;100.00;97165.25;1629589;87;24524;-83
2022/04/06 04:25:00;;;;;;;;;;;;;;;8.89;100.00;97162.64;1632740;86;20216;-82
2022/04/06 04:27:26;;;;;;;;;;;;;;;8.91;100.00;97164.63;1632500;86;25106;-82
2022/04/06 04:29:52;;;;;;;;;;;;;;;8.90;100.00;97166.41;1632635;86;20333;-83
2022/04/06 04:32:19;;;;;;;;;;;;;;;8.90;100.00;97175.54;1629449;87;26061;-83
2022/04/06 04:34:45;;;;;;;;;;;;;;;8.91;100.00;97188.94;1631611;87;24382;-83
2022/04/06 04:37:12;;;;;;;;;;;;;;;8.92;100.00;97191.91;1632669;87;20553;-82
2022/04/06 04:39:38;;;;;;;;;;;;;;;8.93;100.00;97194.87;1632231;87;25613;-83
2022/04/06 04:42:05;;;;;;;;;;;;;;;8.94;100.00;97203.05;1633415;87;20270;-83
2022/04/06 04:44:31;;;;;;;;;;;;;;;8.96;100.00;97206.34;1631311;87;26029;-82
2022/04/06 04:46:57;;;;;;;;;;;;;;;8.97;100.00;97211.09;1633447;86;20345;-82
2022/04/06 04:49:23;;;;;;;;;;;;;;;9.00;100.00;97223.89;1633221;87;20481;-82
2022/04/06 04:51:49;;;;;;;;;;;;;;;9.00;100.00;97219.98;1634106;87;20302;-82
2022/04/06 04:54:16;;;;;;;;;;;;;;;9.02;100.00;97225.41;1633186;87;20273;-82
2022/04/06 04:56:42;;;;;;;;;;;;;;;9.03;100.00;97237.50;1635108;87;26049;-82
2022/04/06 04:59:09;;;;;;;;;;;;;;;9.02;100.00;97227.19;1637222;87;24417;-82
2022/04/06 05:01:39;;;;;;;;;;;;;;;9.03;100.00;97233.59;1619895;87;20310;-82
2022/04/06 05:04:05;;;;;;;;;;;;;;;9.07;100.00;97223.24;1638067;86;25242;-82
2022/04/06 05:06:32;;;;;;;;;;;;;;;9.09;100.00;97217.91;1638451;87;20241;-82
2022/04/06 05:08:58;;;;;;;;;;;;;;;9.11;100.00;97214.70;1639144;87;20957;-83
2022/04/06 05:11:24;;;;;;;;;;;;;;;9.13;100.00;97211.47;1638849;87;24742;-81
2022/04/06 05:13:51;;;;;;;;;;;;;;;9.12;100.00;97209.80;1638663;87;20210;-82
2022/04/06 05:16:17;;;;;;;;;;;;;;;9.12;100.00;97213.25;1638482;87;25656;-82
2022/04/06 05:18:43;;;;;;;;;;;;;;;9.12;100.00;97213.25;1637631;87;20372;-83
2022/04/06 05:21:09;;;;;;;;;;;;;;;9.14;100.00;97220.95;1642261;87;20989;-83
2022/04/06 05:23:35;;;;;;;;;;;;;;;9.14;100.00;97222.27;1639725;87;24357;-83
2022/04/06 05:26:01;;;;;;;;;;;;;;;9.15;100.00;97225.23;1639443;87;20331;-82
2022/04/06 05:28:27;;;;;;;;;;;;;;;9.17;100.00;97229.82;1640113;87;25096;-82
2022/04/06 05:30:53;;;;;;;;;;;;;;;9.18;100.00;97237.53;1638779;87;20832;-82
2022/04/06 05:33:19;;;;;;;;;;;;;;;9.20;100.00;97240.02;1636880;87;25976;-82
2022/04/06 05:35:45;;;;;;;;;;;;;;;9.23;100.00;97239.28;1640042;87;24624;-82
2022/04/06 05:38:12;;;;;;;;;;;;;;;9.23;100.00;97243.67;1636709;87;20282;-82
2022/04/06 05:40:39;;;;;;;;;;;;;;;9.24;100.00;97244.86;1638722;87;25696;-82
2022/04/06 05:43:06;;;;;;;;;;;;;;;9.28;100.00;97246.72;1636699;87;21957;-82
2022/04/06 05:45:34;;;;;;;;;;;;;;;9.30;100.00;97254.44;1638875;87;26036;-83
2022/04/06 05:48:01;;;;;;;;;;;;;;;9.28;100.00;97251.94;1640960;86;24669;-83
2022/04/06 05:50:28;;;;;;;;;;;;;;;9.28;100.00;97257.16;1638153;87;20223;-82
2022/04/06 05:52:53;;;;;;;;;;;;;;;9.27;100.00;97262.06;1634625;87;24939;-82
2022/04/06 05:55:19;;;;;;;;;;;;;;;9.29;100.00;97251.47;1640073;87;20381;-83
2022/04/06 05:57:45;;;;;;;;;;;;;;;9.29;100.00;97254.91;1636876;87;26041;-82
2022/04/06 06:00:12;;;;;;;;;;;;;;;9.35;100.00;97244.43;1630899;86;20253;-83
2022/04/06 06:02:39;;;;;;;;;;;;;;;9.39;100.00;97254.48;1630794;87;20619;-83
2022/04/06 06:05:05;;;;;;;;;;;;;;;9.45;100.00;97255.75;1629274;86;25074;-83
2022/04/06 06:07:31;;;;;;;;;;;;;;;9.48;100.00;97264.18;1630842;88;22074;-82
2022/04/06 06:09:57;;;;;;;;;;;;;;;9.53;100.00;97265.92;1630757;88;26093;-82
2022/04/06 06:12:24;;;;;;;;;;;;;;;9.54;100.00;97270.67;1630420;86;24300;-82
2022/04/06 06:14:50;;;;;;;;;;;;;;;9.54;100.00;97273.28;1631009;86;20231;-82
2022/04/06 06:17:15;;;;;;;;;;;;;;;9.53;100.00;97273.77;1630899;88;20273;-82
2022/04/06 06:19:41;;;;;;;;;;;;;;;9.54;100.00;97264.97;1614439;88;20222;-82
2022/04/06 06:22:08;;;;;;;;;;;;;;;9.57;100.00;97264.70;1610305;89;25941;-82
2022/04/06 06:24:36;;;;;;;;;;;;;;;9.55;100.00;97260.55;1615566;87;20273;-83
2022/04/06 06:27:03;;;;;;;;;;;;;;;9.54;100.00;97257.61;1611619;88;20253;-83
2022/04/06 06:29:29;;;;;;;;;;;;;;;9.52;100.00;97264.27;1610697;88;24960;-83
2022/04/06 06:31:55;;;;;;;;;;;;;;;9.53;100.00;97260.70;1637501;86;21935;-83
2022/04/06 06:34:21;;;;;;;;;;;;;;;9.53;100.00;97266.40;1621491;87;21186;-83
2022/04/06 06:36:47;;;;;;;;;;;;;;;9.55;100.00;97272.30;1634870;87;24742;-83
2022/04/06 06:39:14;;;;;;;;;;;;;;;9.55;100.00;97273.13;1635149;87;20353;-83
2022/04/06 06:41:41;;;;;;;;;;;;;;;9.56;100.00;97279.19;1635123;87;24836;-83
2022/04/06 06:44:15;;;;;;;;;;;;;;;9.59;100.00;97262.80;1635213;86;22687;-83
2022/04/06 06:46:41;;;;;;;;;;;;;;;9.64;100.00;97277.60;1635321;86;26095;-83
2022/04/06 06:49:08;;;;;;;;;;;;;;;9.70;100.00;97276.73;1635147;87;24436;-83
2022/04/06 06:51:42;;;;;;;;;;;;;;;9.73;100.00;97285.60;1634528;87;20189;-83
2022/04/06 06:54:08;;;;;;;;;;;;;;;9.77;100.00;97274.76;1634194;87;25047;-83
2022/04/06 06:56:35;;;;;;;;;;;;;;;9.82;100.00;97278.31;1634844;87;21914;-83
2022/04/06 06:59:01;;;;;;;;;;;;;;;9.85;100.00;97274.12;1619480;87;21039;-83
2022/04/06 07:01:27;;;;;;;;;;;;;;;9.90;100.00;97286.31;1605017;89;24611;-83
2022/04/06 07:03:53;;;;;;;;;;;;;;;9.90;100.00;97290.23;1606255;89;20289;-83
2022/04/06 07:06:19;;;;;;;;;;;;;;;9.89;100.00;97295.10;1605329;89;20242;-86
2022/04/06 07:08:45;;;;;;;;;;;;;;;9.91;100.00;97294.50;1606180;88;20695;-86
2022/04/06 07:11:11;;;;;;;;;;;;;;;9.94;100.00;97295.05;1605512;88;21161;-86
2022/04/06 07:13:37;;;;;;;;;;;;;;;9.95;100.00;97289.35;1605233;89;24455;-86
2022/04/06 07:16:05;;;;;;;;;;;;;;;9.97;100.00;97293.50;1605958;89;20273;-86
2022/04/06 07:18:32;;;;;;;;;;;;;;;10.00;100.00;97284.08;1605809;89;24990;-85
2022/04/06 07:21:00;;;;;;;;;;;;;;;10.00;100.00;97276.24;1606716;89;22161;-86
2022/04/06 07:23:26;;;;;;;;;;;;;;;10.00;100.00;97275.41;1606024;89;26166;-86
2022/04/06 07:25:52;;;;;;;;;;;;;;;10.03;100.00;97266.02;1605729;89;24501;-86
2022/04/06 07:28:18;;;;;;;;;;;;;;;10.03;100.00;97267.33;1606080;89;20326;-86
2022/04/06 07:30:44;;;;;;;;;;;;;;;10.07;100.00;97273.45;1606238;89;20242;-86
2022/04/06 07:33:14;;;;;;;;;;;;;;;10.12;100.00;97264.37;1605430;88;22129;-86
2022/04/06 07:35:40;;;;;;;;;;;;;;;10.17;100.00;97274.81;1604971;87;26024;-86
2022/04/06 07:38:06;;;;;;;;;;;;;;;10.20;100.00;97273.23;1605272;89;24331;-86
2022/04/06 07:40:35;;;;;;;;;;;;;;;10.24;100.00;97279.87;1606214;89;20548;-86
2022/04/06 07:43:01;;;;;;;;;;;;;;;10.27;100.00;97270.92;1605530;89;24960;-85
2022/04/06 07:45:27;;;;;;;;;;;;;;;10.29;100.00;97261.99;1605830;89;21955;-86
2022/04/06 07:47:58;;;;;;;;;;;;;;;10.28;100.00;97258.20;1604851;89;25987;-85
2022/04/06 07:50:23;;;;;;;;;;;;;;;10.25;100.00;97267.16;1577199;89;20269;-85
2022/04/06 07:52:49;;;;;;;;;;;;;;;10.27;100.00;97267.00;1604973;89;20270;-85
2022/04/06 07:55:15;;;;;;;;;;;;;;;10.28;100.00;97273.89;1604009;89;25030;-85
2022/04/06 07:57:41;;;;;;;;;;;;;;;10.29;100.00;97269.01;1604447;89;22820;-84
2022/04/06 08:00:09;;;;;;;;;;;;;;;10.31;100.00;97276.25;1626583;87;21114;-84
2022/04/06 08:02:39;;;;;;;;;;;;;;;10.35;100.00;97276.32;1628296;88;24508;-84
2022/04/06 08:05:06;;;;;;;;;;;;;;;10.40;100.00;97277.58;1629936;88;20525;-85
2022/04/06 08:07:33;;;;;;;;;;;;;;;10.42;100.00;97274.33;1629623;88;25057;-85
2022/04/06 08:09:59;;;;;;;;;;;;;;;10.51;100.00;97278.42;1629936;88;21980;-86
2022/04/06 08:12:25;;;;;;;;;;;;;;;10.59;100.00;97276.77;1628363;88;26033;-85
2022/04/06 08:14:51;;;;;;;;;;;;;;;10.64;100.00;97267.20;1629117;87;25753;-85
2022/04/06 08:17:17;;;;;;;;;;;;;;;10.67;100.00;97273.01;1630207;87;20235;-86
2022/04/06 08:19:45;;;;;;;;;;;;;;;10.73;100.00;97275.56;1628323;88;25018;-86
2022/04/06 08:22:11;;;;;;;;;;;;;;;10.77;100.00;97270.39;1629956;87;22646;-85
2022/04/06 08:24:37;;;;;;;;;;;;;;;10.81;100.00;97277.83;1630129;88;26174;-86
2022/04/06 08:27:03;;;;;;;;;;;;;;;10.84;100.00;97280.19;1629664;88;20382;-85
2022/04/06 08:29:29;;;;;;;;;;;;;;;10.87;100.00;97273.84;1629952;88;20259;-86
2022/04/06 08:31:55;;;;;;;;;;;;;;;10.90;100.00;97278.81;1629977;88;24966;-86
2022/04/06 08:34:21;;;;;;;;;;;;;;;10.88;100.00;97281.56;1629962;88;22025;-86
2022/04/06 08:36:49;;;;;;;;;;;;;;;10.86;100.00;97277.41;1630121;88;26032;-85
2022/04/06 08:39:15;;;;;;;;;;;;;;;10.88;100.00;97281.56;1630023;87;24430;-85
2022/04/06 08:41:42;;;;;;;;;;;;;;;10.91;100.00;97281.27;1629690;88;20563;-85
2022/04/06 08:44:09;;;;;;;;;;;;;;;10.92;100.00;97275.56;1628545;87;25615;-84
2022/04/06 08:46:35;;;;;;;;;;;;;;;10.91;100.00;97285.20;1628642;87;21988;-85
2022/04/06 08:49:01;;;;;;;;;;;;;;;10.95;100.00;97303.27;1628937;88;26206;-84
2022/04/06 08:51:29;;;;;;;;;;;;;;;10.92;100.00;97293.88;1605663;88;24445;-85
2022/04/06 08:53:55;;;;;;;;;;;;;;;10.92;100.00;97295.19;1630060;88;20210;-85
2022/04/06 08:56:24;;;;;;;;;;;;;;;10.88;100.00;97286.80;1628831;88;20791;-85
2022/04/06 08:58:49;;;;;;;;;;;;;;;10.89;100.00;97290.24;1631806;87;21716;-84
2022/04/06 09:01:16;;;;;;;;;;;;;;;10.91;100.00;97286.98;1638931;87;22021;-84
2022/04/06 09:03:41;;;;;;;;;;;;;;;10.94;100.00;97294.58;1638864;87;24508;-85
2022/04/06 09:06:12;;;;;;;;;;;;;;;11.01;100.00;97293.08;1638722;87;20222;-85
2022/04/06 09:08:39;;;;;;;;;;;;;;;11.08;100.00;97299.39;1638412;87;25126;-85
2022/04/06 09:11:07;;;;;;;;;;;;;;;11.15;100.00;97300.51;1638600;87;21983;-85
2022/04/06 09:13:33;;;;;;;;;;;;;;;11.15;100.00;97291.34;1638580;87;27360;-85
2022/04/06 09:16:04;;;;;;;;;;;;;;;11.21;100.00;97289.96;1638970;87;20944;-85
2022/04/06 09:18:34;;;;;;;;;;;;;;;11.21;100.00;97289.48;1638585;87;20213;-85
2022/04/06 09:21:01;;;;;;;;;;;;;;;11.19;100.00;97291.40;1638958;87;26996;-85
2022/04/06 09:23:31;;;;;;;;;;;;;;;11.17;100.00;97290.73;1638779;87;21113;-85
2022/04/06 09:25:58;;;;;;;;;;;;;;;11.18;100.00;97290.25;1638887;87;26077;-85
2022/04/06 09:28:26;;;;;;;;;;;;;;;11.18;100.00;97291.05;1638364;87;24409;-84
2022/04/06 09:30:53;;;;;;;;;;;;;;;11.16;100.00;97285.14;1638597;87;20242;-85
2022/04/06 09:33:19;;;;;;;;;;;;;;;11.14;100.00;97288.37;1638778;87;24985;-84
2022/04/06 09:35:46;;;;;;;;;;;;;;;11.14;100.00;97281.83;1638869;87;22807;-84
2022/04/06 09:38:13;;;;;;;;;;;;;;;11.14;100.00;97291.47;1638994;87;25963;-84
2022/04/06 09:40:42;;;;;;;;;;;;;;;11.14;100.00;97290.99;1638593;87;25025;-84
2022/04/06 09:43:09;;;;;;;;;;;;;;;11.18;100.00;97291.56;1638651;87;20256;-84
2022/04/06 09:48:27;;;;;;;;;;;;;;;11.23;100.00;97288.88;1638673;87;22115;-85
2022/04/06 09:50:55;;;;;;;;;;;;;;;11.25;100.00;97282.16;1620308;87;21161;-84
2022/04/06 09:53:22;;;;;;;;;;;;;;;11.31;100.00;97269.34;1638572;87;24524;-85
2022/04/06 09:55:49;;;;;;;;;;;;;;;11.42;100.00;97264.91;1636734;87;20221;-85
2022/04/06 09:58:16;;;;;;;;;;;;;;;11.51;100.00;97253.09;1638841;87;25679;-85
2022/04/06 10:00:42;;;;;;;;;;;;;;;11.61;100.00;97253.09;1644889;85;22114;-85
2022/04/06 10:03:13;;;;;;;;;;;;;;;11.67;100.00;97248.59;1646752;86;26097;-85
2022/04/06 10:05:42;;;;;;;;;;;;;;;11.78;100.00;97251.07;1647202;86;24465;-85
2022/04/06 10:08:09;;;;;;;;;;;;;;;11.90;100.00;97244.66;1646949;86;20452;-85
2022/04/06 10:10:35;;;;;;;;;;;;;;;12.00;100.00;97248.05;1649354;86;25211;-85
2022/04/06 10:13:04;;;;;;;;;;;;;;;12.10;100.00;97250.66;1649405;86;22080;-85
2022/04/06 10:15:37;;;;;;;;;;;;;;;12.18;100.00;97251.22;1646596;86;26066;-85
2022/04/06 10:18:03;;;;;;;;;;;;;;;12.26;100.00;97251.33;1643574;86;24498;-85
2022/04/06 10:20:31;;;;;;;;;;;;;;;12.30;100.00;97252.20;1648043;86;20377;-85
2022/04/06 10:22:59;;;;;;;;;;;;;;;12.35;100.00;97249.13;1642519;86;24978;-85
2022/04/06 10:25:26;;;;;;;;;;;;;;;12.39;100.00;97248.69;1641034;86;22093;-85
2022/04/06 10:27:54;;;;;;;;;;;;;;;12.45;100.00;97249.89;1646212;86;26642;-85
2022/04/06 10:30:23;;;;;;;;;;;;;;;12.49;100.00;97249.45;1644874;86;25256;-85
2022/04/06 10:32:50;;;;;;;;;;;;;;;12.52;100.00;97243.92;1643069;86;20504;-85
2022/04/06 10:35:27;;;;;;;;;;;;;;;12.63;100.00;97238.94;1651599;86;25781;-85
2022/04/06 10:37:55;;;;;;;;;;;;;;;12.73;100.00;97236.23;1648487;86;22004;-85
2022/04/06 10:40:24;;;;;;;;;;;;;;;12.82;100.00;97231.42;1643614;86;26169;-85
2022/04/06 10:42:51;;;;;;;;;;;;;;;12.85;100.00;97226.69;1648905;86;24518;-85
2022/04/06 10:45:29;;;;;;;;;;;;;;;12.83;100.00;97223.38;1646704;86;20224;-84
2022/04/06 10:48:00;;;;;;;;;;;;;;;12.81;100.00;97223.20;1644634;86;25708;-85
2022/04/06 10:50:26;;;;;;;;;;;;;;;12.81;100.00;97223.20;1608602;86;22576;-84
2022/04/06 10:53:10;;;;;;;;;;;;;;;12.79;100.00;97228.59;1644106;86;26577;-84
2022/04/06 10:55:38;;;;;;;;;;;;;;;12.77;100.00;97221.34;1644310;86;24314;-85
2022/04/06 10:58:04;;;;;;;;;;;;;;;12.70;100.00;97222.11;1647137;86;20256;-85
2022/04/06 11:00:30;;;;;;;;;;;;;;;12.69;100.00;97216.52;1646687;86;20797;-85
2022/04/06 11:03:15;;;;;;;;;;;;;;;12.68;100.00;97215.69;1644789;86;22086;-85
2022/04/06 11:05:52;;;;;;;;;;;;;;;12.69;100.00;97218.66;1645507;86;26645;-85
2022/04/06 11:11:38;;;;;;;;;;;;;;;12.73;100.00;97209.98;1646541;86;20210;-85
2022/04/06 11:14:04;;;;;;;;;;;;;;;12.72;100.00;97210.47;1646627;86;25084;-85
2022/04/06 11:16:41;;;;;;;;;;;;;;;12.76;100.00;97211.84;1648983;86;20241;-84
2022/04/06 11:19:07;;;;;;;;;;;;;;;12.83;100.00;97214.67;1647423;86;26070;-84
2022/04/06 11:21:38;;;;;;;;;;;;;;;12.88;100.00;97211.92;1650772;86;25244;-85
2022/04/06 11:24:04;;;;;;;;;;;;;;;12.89;100.00;97209.64;1647999;86;20295;-85
2022/04/06 11:26:35;;;;;;;;;;;;;;;12.91;100.00;97197.69;1652722;86;25049;-84
2022/04/06 11:29:03;;;;;;;;;;;;;;;12.91;100.00;97204.25;1646541;86;22019;-84
2022/04/06 11:31:29;;;;;;;;;;;;;;;12.99;100.00;97201.19;1646490;86;26063;-84
2022/04/06 11:33:55;;;;;;;;;;;;;;;13.07;100.00;97194.36;1649162;86;20320;-84
2022/04/06 11:36:21;;;;;;;;;;;;;;;13.11;100.00;97195.20;1646394;86;20200;-84
2022/04/06 11:38:48;;;;;;;;;;;;;;;13.13;100.00;97193.78;1645730;86;20325;-84
2022/04/06 11:41:15;;;;;;;;;;;;;;;13.18;100.00;97192.34;1647937;86;21927;-85
2022/04/06 11:43:42;;;;;;;;;;;;;;;13.27;100.00;97187.47;1648643;86;26081;-84
2022/04/06 11:46:08;;;;;;;;;;;;;;;13.35;100.00;97184.91;1648395;86;24363;-84
2022/04/06 11:48:41;;;;;;;;;;;;;;;13.46;100.00;97179.05;1646251;86;20371;-84
2022/04/06 11:51:09;;;;;;;;;;;;;;;13.57;100.00;97173.05;1645745;86;24995;-84
2022/04/06 11:53:36;;;;;;;;;;;;;;;13.65;100.00;97158.61;1646417;86;21951;-84
2022/04/06 11:56:03;;;;;;;;;;;;;;;13.70;100.00;97168.16;1649278;86;26176;-86
2022/04/06 11:58:36;;;;;;;;;;;;;;;13.72;100.00;97160.95;1650654;86;24459;-85
2022/04/06 12:01:18;;;;;;;;;;;;;;;13.80;100.00;97163.59;1647621;85;20599;-85
2022/04/06 12:03:45;;;;;;;;;;;;;;;13.88;100.00;97150.98;1640996;86;24973;-85
2022/04/06 12:06:16;;;;;;;;;;;;;;;13.97;100.00;97150.51;1645977;86;22133;-86
2022/04/06 12:08:43;;;;;;;;;;;;;;;14.02;100.00;97149.56;1642994;86;25969;-84
2022/04/06 12:11:09;;;;;;;;;;;;;;;14.08;100.00;97147.58;1643314;86;25219;-83
2022/04/06 12:13:36;;;;;;;;;;;;;;;14.08;100.00;97150.22;1636107;86;20521;-84
2022/04/06 12:16:03;;;;;;;;;;;;;;;14.09;100.00;97143.97;1635015;86;25008;-84
2022/04/06 12:18:29;;;;;;;;;;;;;;;14.06;100.00;97143.00;1638431;86;21927;-83
2022/04/06 12:20:55;;;;;;;;;;;;;;;13.98;100.00;97156.11;1644942;86;26616;-83
2022/04/06 12:23:25;;;;;;;;;;;;;;;13.94;100.00;97156.93;1640927;86;23842;-83
2022/04/06 12:25:59;;;;;;;;;;;;;;;13.88;100.00;97161.50;1641892;86;20468;-84
2022/04/06 12:28:26;;;;;;;;;;;;;;;13.87;100.00;97148.50;1649991;85;25002;-84
2022/04/06 12:30:55;;;;;;;;;;;;;;;13.92;100.00;97145.73;1640694;86;28719;-84
2022/04/06 12:33:38;;;;;;;;;;;;;;;13.99;100.00;97148.06;1647692;86;56235;-84
2022/04/06 12:36:18;;;;;;;;;;;;;;;14.03;100.00;97144.13;1642261;86;24719;-84
2022/04/06 12:39:04;;;;;;;;;;;;;;;14.08;100.00;97128.68;1625685;86;20214;-84
2022/04/06 12:41:31;;;;;;;;;;;;;;;14.13;100.00;97129.02;1628755;87;25042;-84
2022/04/06 12:44:00;;;;;;;;;;;;;;;14.11;100.00;97122.29;1636372;86;23335;-84
2022/04/06 12:46:36;;;;;;;;;;;;;;;14.09;100.00;97119.81;1643458;86;26969;-84
2022/04/06 12:49:18;;;;;;;;;;;;;;;14.09;100.00;97119.81;1644517;85;24495;-84
2022/04/06 12:51:44;;;;;;;;;;;;;;;14.08;100.00;97118.64;1629487;87;20254;-84
2022/04/06 12:54:12;;;;;;;;;;;;;;;14.06;100.00;97116.69;1608946;88;25034;-84